createdAt,value
2023-04-15T00:00:30.857Z,5.91
2023-04-15T00:02:57.579Z,6.05
2023-04-15T00:05:24.260Z,5.92
2023-04-15T00:07:51.444Z,5.95
2023-04-15T00:10:18.031Z,6.05
2023-04-15T00:12:44.747Z,6.04
2023-04-15T00:15:12.601Z,6.02
2023-04-15T00:17:40.025Z,5.85
2023-04-15T00:20:07.298Z,5.97
2023-04-15T00:22:33.953Z,5.99
2023-04-15T00:25:00.741Z,6.01
2023-04-15T00:27:27.354Z,6.00
2023-04-15T00:29:54.089Z,5.84
2023-04-15T00:32:21.676Z,5.88
2023-04-15T00:34:48.334Z,5.56
2023-04-15T00:37:15.018Z,5.64
2023-04-15T00:39:41.953Z,5.51
2023-04-15T00:42:09.240Z,5.53
2023-04-15T00:44:35.842Z,5.53
2023-04-15T00:47:04.023Z,5.34
2023-04-15T00:49:30.950Z,5.54
2023-04-15T00:51:57.718Z,5.52
2023-04-15T00:54:24.367Z,5.45
2023-04-15T00:56:51.346Z,5.50
2023-04-15T00:59:17.992Z,5.53
2023-04-15T01:01:44.883Z,5.52
2023-04-15T01:04:12.412Z,5.43
2023-04-15T01:06:39.268Z,5.48
2023-04-15T01:09:06.408Z,5.52
2023-04-15T01:11:35.946Z,5.50
2023-04-15T01:14:03.181Z,5.51
2023-04-15T01:16:29.958Z,5.52
2023-04-15T01:18:57.170Z,5.45
2023-04-15T01:21:23.931Z,5.55
2023-04-15T01:23:51.713Z,5.54
2023-04-15T01:26:18.713Z,5.46
2023-04-15T01:28:45.336Z,5.44
2023-04-15T01:31:16.711Z,5.47
2023-04-15T01:33:43.682Z,5.52
2023-04-15T01:36:11.042Z,5.47
2023-04-15T01:38:38.293Z,5.44
2023-04-15T01:41:06.938Z,5.51
2023-04-15T01:43:34.605Z,5.46
2023-04-15T01:46:01.809Z,5.38
2023-04-15T01:48:28.496Z,5.29
2023-04-15T01:50:57.684Z,5.39
2023-04-15T01:53:25.410Z,5.37
2023-04-15T01:55:53.351Z,5.17
2023-04-15T01:58:20.142Z,5.26
2023-04-15T02:00:47.358Z,5.30
2023-04-15T02:03:14.138Z,5.27
2023-04-15T02:05:40.839Z,5.15
2023-04-15T02:08:07.649Z,5.21
2023-04-15T02:10:34.427Z,5.29
2023-04-15T02:13:01.334Z,5.20
2023-04-15T02:15:28.121Z,5.20
2023-04-15T02:17:55.524Z,5.13
2023-04-15T02:20:22.700Z,5.14
2023-04-15T02:22:50.036Z,5.02
2023-04-15T02:25:20.576Z,5.10
2023-04-15T02:27:47.411Z,5.02
2023-04-15T02:30:14.306Z,4.93
2023-04-15T02:32:44.006Z,4.99
2023-04-15T02:35:10.846Z,4.95
2023-04-15T02:37:43.539Z,4.86
2023-04-15T02:40:13.970Z,4.89
2023-04-15T02:42:41.286Z,4.85
2023-04-15T02:45:08.545Z,4.88
2023-04-15T02:47:36.242Z,4.78
2023-04-15T02:50:04.151Z,4.86
2023-04-15T02:52:31.260Z,4.88
2023-04-15T02:55:00.823Z,4.91
2023-04-15T02:57:29.230Z,4.88
2023-04-15T02:59:55.963Z,4.92
2023-04-15T03:02:22.774Z,4.99
2023-04-15T03:04:49.701Z,4.85
2023-04-15T03:07:17.960Z,4.89
2023-04-15T03:09:44.952Z,4.76
2023-04-15T03:12:11.652Z,4.91
2023-04-15T03:14:38.449Z,4.80
2023-04-15T03:17:08.153Z,4.81
2023-04-15T03:19:36.135Z,4.76
2023-04-15T03:22:02.997Z,4.77
2023-04-15T03:24:30.499Z,4.80
2023-04-15T03:26:57.960Z,4.58
2023-04-15T03:29:30.962Z,4.78
2023-04-15T03:31:57.578Z,4.61
2023-04-15T03:34:24.387Z,4.74
2023-04-15T03:36:51.404Z,4.80
2023-04-15T03:39:18.053Z,4.67
2023-04-15T03:41:44.755Z,4.76
2023-04-15T03:44:11.632Z,4.80
2023-04-15T03:46:38.394Z,4.77
2023-04-15T03:49:07.308Z,4.81
2023-04-15T03:51:34.072Z,4.79
2023-04-15T03:54:00.774Z,4.83
2023-04-15T03:56:27.440Z,4.87
2023-04-15T03:58:54.156Z,4.87
2023-04-15T04:01:20.899Z,4.78
2023-04-15T04:03:47.790Z,4.89
2023-04-15T04:06:15.766Z,4.80
2023-04-15T04:08:42.520Z,4.73
2023-04-15T04:11:09.211Z,4.78
2023-04-15T04:13:36.457Z,4.78
2023-04-15T04:16:05.240Z,4.89
2023-04-15T04:18:32.846Z,4.99
2023-04-15T04:20:59.490Z,4.78
2023-04-15T04:23:26.572Z,4.99
2023-04-15T04:25:53.672Z,5.03
2023-04-15T04:28:20.319Z,4.89
2023-04-15T04:30:46.929Z,4.80
2023-04-15T04:33:21.713Z,4.91
2023-04-15T04:35:48.335Z,4.88
2023-04-15T04:38:15.060Z,5.02
2023-04-15T04:40:41.761Z,4.92
2023-04-15T04:43:09.726Z,5.00
2023-04-15T04:45:36.398Z,4.91
2023-04-15T04:48:07.239Z,5.00
2023-04-15T04:50:34.816Z,4.83
2023-04-15T04:53:01.987Z,5.01
2023-04-15T04:55:28.880Z,4.90
2023-04-15T04:57:55.758Z,4.90
2023-04-15T05:00:22.933Z,4.88
2023-04-15T05:02:53.543Z,4.83
2023-04-15T05:05:20.311Z,4.72
2023-04-15T05:07:47.409Z,4.84
2023-04-15T05:10:15.413Z,4.85
2023-04-15T05:12:41.994Z,4.83
2023-04-15T05:15:09.254Z,4.88
2023-04-15T05:17:36.077Z,4.95
2023-04-15T05:20:03.922Z,4.90
2023-04-15T05:22:30.721Z,4.97
2023-04-15T05:24:57.374Z,4.88
2023-04-15T05:27:24.760Z,4.76
2023-04-15T05:29:51.734Z,4.72
2023-04-15T05:32:18.449Z,4.77
2023-04-15T05:34:45.744Z,4.63
2023-04-15T05:37:12.882Z,4.74
2023-04-15T05:39:39.536Z,4.62
2023-04-15T05:42:06.354Z,4.71
2023-04-15T05:44:33.130Z,4.64
2023-04-15T05:46:59.912Z,4.68
2023-04-15T05:49:26.577Z,4.64
2023-04-15T05:51:53.192Z,4.69
2023-04-15T05:54:20.388Z,4.87
2023-04-15T05:56:47.639Z,4.84
2023-04-15T05:59:14.255Z,4.77
2023-04-15T06:01:40.854Z,4.87
2023-04-15T06:04:07.592Z,4.79
2023-04-15T06:06:34.817Z,4.78
2023-04-15T06:09:01.742Z,4.84
2023-04-15T06:11:31.406Z,4.89
2023-04-15T06:13:58.205Z,4.87
2023-04-15T06:16:24.923Z,4.97
2023-04-15T06:18:51.622Z,5.15
2023-04-15T06:21:18.893Z,5.11
2023-04-15T06:23:45.723Z,5.18
2023-04-15T06:26:12.368Z,5.01
2023-04-15T06:28:38.955Z,5.08
2023-04-15T06:31:05.783Z,4.86
2023-04-15T06:33:32.468Z,4.86
2023-04-15T06:35:59.151Z,4.87
2023-04-15T06:38:25.962Z,4.98
2023-04-15T06:40:58.604Z,5.08
2023-04-15T06:43:25.948Z,4.98
2023-04-15T06:45:52.674Z,5.15
2023-04-15T06:48:19.381Z,5.47
2023-04-15T06:50:46.113Z,5.45
2023-04-15T06:53:12.826Z,5.32
2023-04-15T06:55:40.373Z,5.29
2023-04-15T06:58:08.059Z,5.18
2023-04-15T07:00:34.681Z,5.25
2023-04-15T07:03:03.869Z,5.27
2023-04-15T07:05:31.168Z,5.19
2023-04-15T07:07:57.976Z,5.13
2023-04-15T07:10:25.755Z,5.04
2023-04-15T07:12:52.685Z,5.06
2023-04-15T07:15:19.730Z,5.01
2023-04-15T07:17:46.571Z,4.97
2023-04-15T07:20:16.675Z,5.17
2023-04-15T07:22:43.721Z,5.09
2023-04-15T07:25:11.477Z,5.24
2023-04-15T07:27:38.196Z,5.28
2023-04-15T07:30:05.370Z,5.05
2023-04-15T07:32:32.740Z,4.99
2023-04-15T07:34:59.408Z,4.99
2023-04-15T07:37:30.069Z,4.93
2023-04-15T07:39:56.862Z,5.08
2023-04-15T07:42:23.534Z,5.14
2023-04-15T07:44:50.292Z,5.23
2023-04-15T07:47:16.961Z,4.96
2023-04-15T07:49:44.535Z,4.99
2023-04-15T07:52:11.590Z,5.07
2023-04-15T07:54:38.259Z,4.95
2023-04-15T07:57:05.077Z,5.11
2023-04-15T07:59:33.560Z,5.03
2023-04-15T08:02:00.413Z,4.83
2023-04-15T08:04:27.679Z,4.93
2023-04-15T08:06:54.857Z,4.96
2023-04-15T08:09:21.868Z,5.05
2023-04-15T08:11:51.776Z,5.13
2023-04-15T08:14:18.549Z,5.17
2023-04-15T08:16:45.281Z,5.14
2023-04-15T08:19:12.100Z,5.17
2023-04-15T08:21:38.929Z,5.10
2023-04-15T08:24:07.080Z,4.96
2023-04-15T08:26:33.766Z,5.16
2023-04-15T08:29:00.761Z,5.18
2023-04-15T08:31:30.029Z,4.88
2023-04-15T08:33:58.032Z,4.89
2023-04-15T08:36:24.677Z,4.99
2023-04-15T08:38:51.356Z,5.15
2023-04-15T08:41:23.631Z,5.01
2023-04-15T08:43:58.040Z,5.19
2023-04-15T08:46:24.922Z,5.16
2023-04-15T08:48:52.295Z,5.22
2023-04-15T08:51:19.168Z,5.12
2023-04-15T08:53:47.547Z,5.09
2023-04-15T08:56:15.739Z,5.22
2023-04-15T08:58:44.355Z,5.35
2023-04-15T09:01:13.303Z,5.21
2023-04-15T09:03:40.885Z,5.15
2023-04-15T09:06:07.725Z,5.22
2023-04-15T09:08:37.161Z,5.19
2023-04-15T09:11:04.131Z,5.28
2023-04-15T09:13:31.397Z,5.23
2023-04-15T09:16:00.764Z,5.07
2023-04-15T09:18:29.771Z,5.04
2023-04-15T09:20:57.074Z,5.11
2023-04-15T09:23:23.754Z,5.17
2023-04-15T09:25:50.713Z,5.03
2023-04-15T09:28:26.073Z,5.12
2023-04-15T09:30:55.509Z,5.14
2023-04-15T09:33:22.430Z,5.15
2023-04-15T09:36:01.969Z,5.40
2023-04-15T09:38:29.699Z,5.34
2023-04-15T09:40:56.360Z,5.39
2023-04-15T09:43:23.949Z,5.29
2023-04-15T09:45:54.420Z,5.37
2023-04-15T09:48:29.074Z,5.19
2023-04-15T09:50:58.757Z,5.18
2023-04-15T09:53:26.518Z,5.38
2023-04-15T09:55:58.233Z,5.20
2023-04-15T09:58:26.769Z,5.40
2023-04-15T10:00:54.743Z,5.15
2023-04-15T10:03:23.753Z,5.04
2023-04-15T10:05:52.796Z,5.18
2023-04-15T10:08:21.768Z,4.98
2023-04-15T10:10:49.232Z,5.40
2023-04-15T10:13:26.723Z,5.31
2023-04-15T10:16:05.791Z,5.28
2023-04-15T10:18:35.401Z,5.36
2023-04-15T10:21:02.445Z,5.28
2023-04-15T10:23:29.282Z,5.22
2023-04-15T10:25:56.373Z,5.21
2023-04-15T10:28:23.226Z,5.22
2023-04-15T10:30:50.282Z,5.06
2023-04-15T10:33:23.708Z,5.38
2023-04-15T10:35:51.887Z,5.27
2023-04-15T10:38:38.854Z,5.37
2023-04-15T10:41:28.202Z,5.56
2023-04-15T10:44:05.033Z,5.42
2023-04-15T10:46:39.453Z,5.22
2023-04-15T10:49:13.271Z,5.30
2023-04-15T10:52:01.489Z,5.26
2023-04-15T10:54:28.054Z,5.34
2023-04-15T10:57:01.665Z,5.42
2023-04-15T10:59:35.662Z,5.35
2023-04-15T11:02:04.427Z,5.34
2023-04-15T11:05:00.065Z,5.26
2023-04-15T11:07:50.531Z,5.17
2023-04-15T11:10:26.361Z,5.31
2023-04-15T11:13:17.295Z,5.27
2023-04-15T11:15:47.963Z,5.25
2023-04-15T11:18:23.203Z,5.40
2023-04-15T11:20:57.632Z,5.51
2023-04-15T11:23:38.337Z,5.41
2023-04-15T11:26:09.832Z,5.24
2023-04-15T11:28:38.741Z,5.37
2023-04-15T11:31:13.892Z,5.03
2023-04-15T11:33:59.632Z,5.48
2023-04-15T11:36:27.673Z,5.39
2023-04-15T11:38:54.625Z,5.23
2023-04-15T11:41:23.275Z,5.26
2023-04-15T11:43:50.958Z,5.18
2023-04-15T11:46:18.082Z,5.10
2023-04-15T11:48:47.158Z,5.23
2023-04-15T11:51:14.315Z,5.20
2023-04-15T11:53:52.963Z,5.31
2023-04-15T11:56:24.144Z,5.36
2023-04-15T11:59:02.425Z,5.07
2023-04-15T12:01:37.153Z,5.20
2023-04-15T12:04:12.113Z,5.18
2023-04-15T12:06:39.250Z,5.02
2023-04-15T12:09:16.917Z,5.25
2023-04-15T12:11:47.613Z,5.11
2023-04-15T12:14:30.149Z,5.22
2023-04-15T12:17:08.086Z,5.20
2023-04-15T12:19:40.241Z,5.16
2023-04-15T12:22:10.538Z,5.13
2023-04-15T12:24:38.150Z,5.17
2023-04-15T12:27:07.139Z,5.26
2023-04-15T12:29:35.236Z,5.26
2023-04-15T12:32:09.710Z,5.29
2023-04-15T12:34:58.528Z,5.21
2023-04-15T12:37:26.218Z,5.04
2023-04-15T12:39:54.244Z,4.97
2023-04-15T12:42:21.109Z,5.01
2023-04-15T12:44:48.072Z,5.09
2023-04-15T12:47:14.731Z,5.25
2023-04-15T12:49:41.681Z,5.14
2023-04-15T12:52:11.621Z,5.23
2023-04-15T12:54:40.163Z,5.14
2023-04-15T12:57:07.403Z,5.25
2023-04-15T12:59:35.188Z,5.27
2023-04-15T13:02:08.290Z,5.15
2023-04-15T13:04:35.139Z,5.25
2023-04-15T13:07:02.308Z,5.08
2023-04-15T13:09:28.950Z,5.32
2023-04-15T13:11:56.492Z,5.20
2023-04-15T13:14:27.236Z,5.28
2023-04-15T13:16:54.138Z,5.26
2023-04-15T13:19:20.780Z,5.34
2023-04-15T13:21:47.863Z,5.29
2023-04-15T13:24:14.446Z,5.23
2023-04-15T13:26:41.231Z,5.28
2023-04-15T13:29:08.118Z,5.33
2023-04-15T13:31:35.202Z,5.34
2023-04-15T13:34:01.915Z,5.19
2023-04-15T13:36:28.689Z,5.39
2023-04-15T13:38:55.682Z,5.29
2023-04-15T13:41:22.586Z,5.26
2023-04-15T13:43:49.272Z,5.22
2023-04-15T13:46:16.163Z,5.12
2023-04-15T13:48:46.266Z,5.20
2023-04-15T13:51:13.211Z,5.37
2023-04-15T13:53:40.005Z,5.32
2023-04-15T13:56:08.186Z,5.29
2023-04-15T13:58:34.881Z,5.24
2023-04-15T14:01:04.714Z,5.26
2023-04-15T14:03:32.814Z,5.18
2023-04-15T14:05:59.739Z,5.37
2023-04-15T14:08:30.866Z,5.28
2023-04-15T14:10:57.958Z,5.29
2023-04-15T14:13:24.816Z,5.26
2023-04-15T14:15:51.528Z,5.27
2023-04-15T14:18:18.331Z,5.26
2023-04-15T14:20:45.390Z,5.31
2023-04-15T14:23:12.356Z,5.27
2023-04-15T14:25:41.843Z,5.18
2023-04-15T14:28:08.653Z,5.31
2023-04-15T14:30:35.880Z,5.40
2023-04-15T14:33:02.728Z,5.34
2023-04-15T14:35:42.165Z,5.14
2023-04-15T14:38:11.263Z,5.28
2023-04-15T14:40:38.472Z,5.17
2023-04-15T14:43:05.478Z,5.18
2023-04-15T14:45:32.548Z,5.19
2023-04-15T14:48:00.043Z,5.10
2023-04-15T14:50:26.891Z,5.11
2023-04-15T14:52:53.521Z,5.21
2023-04-15T14:55:20.621Z,5.19
2023-04-15T14:57:47.522Z,5.10
2023-04-15T15:00:16.039Z,5.21
2023-04-15T15:02:43.291Z,5.14
2023-04-15T15:05:10.921Z,5.19
2023-04-15T15:07:39.555Z,5.20
2023-04-15T15:10:07.311Z,5.14
2023-04-15T15:12:34.309Z,5.11
2023-04-15T15:15:03.041Z,5.11
2023-04-15T15:17:31.883Z,5.16
2023-04-15T15:19:58.555Z,5.14
2023-04-15T15:22:26.379Z,5.17
2023-04-15T15:24:53.671Z,5.16
2023-04-15T15:27:20.504Z,5.14
2023-04-15T15:29:47.222Z,5.07
2023-04-15T15:32:14.321Z,5.02
2023-04-15T15:34:41.137Z,4.79
2023-04-15T15:37:07.800Z,4.68
2023-04-15T15:39:35.402Z,4.70
2023-04-15T15:42:02.305Z,4.78
2023-04-15T15:44:29.098Z,4.70
2023-04-15T15:46:55.788Z,4.64
2023-04-15T15:49:22.720Z,4.74
2023-04-15T15:51:49.981Z,4.72
2023-04-15T15:54:20.537Z,4.69
2023-04-15T15:56:47.164Z,4.69
2023-04-15T15:59:14.821Z,4.65
2023-04-15T16:01:41.710Z,4.69
2023-04-15T16:04:08.598Z,4.60
2023-04-15T16:06:35.590Z,4.66
2023-04-15T16:09:02.435Z,4.61
2023-04-15T16:11:29.833Z,4.64
2023-04-15T16:13:56.652Z,4.74
2023-04-15T16:16:24.335Z,4.59
2023-04-15T16:18:51.169Z,4.74
2023-04-15T16:21:17.845Z,4.64
2023-04-15T16:23:44.743Z,4.63
2023-04-15T16:26:12.034Z,4.67
2023-04-15T16:28:38.720Z,4.52
2023-04-15T16:31:05.529Z,4.66
2023-04-15T16:33:32.630Z,4.47
2023-04-15T16:35:59.255Z,4.50
2023-04-15T16:38:26.626Z,4.55
2023-04-15T16:40:53.228Z,4.51
2023-04-15T16:43:20.240Z,4.41
2023-04-15T16:45:51.559Z,4.42
2023-04-15T16:48:21.705Z,4.36
2023-04-15T16:50:49.266Z,4.22
2023-04-15T16:53:16.164Z,4.41
2023-04-15T16:55:42.760Z,4.39
2023-04-15T16:58:09.572Z,4.29
2023-04-15T17:00:37.080Z,4.41
2023-04-15T17:03:06.360Z,4.34
2023-04-15T17:05:33.588Z,4.31
2023-04-15T17:08:00.534Z,4.50
2023-04-15T17:10:27.892Z,4.42
2023-04-15T17:12:57.208Z,4.41
2023-04-15T17:15:24.163Z,4.39
2023-04-15T17:17:51.231Z,4.29
2023-04-15T17:20:18.238Z,4.17
2023-04-15T17:22:45.303Z,4.33
2023-04-15T17:25:13.754Z,4.37
2023-04-15T17:27:40.984Z,4.45
2023-04-15T17:30:09.716Z,4.38
2023-04-15T17:32:36.798Z,4.23
2023-04-15T17:35:06.409Z,4.24
2023-04-15T17:37:36.224Z,4.32
2023-04-15T17:40:08.008Z,4.34
2023-04-15T17:42:35.411Z,4.03
2023-04-15T17:45:02.372Z,4.31
2023-04-15T17:47:29.018Z,4.29
2023-04-15T17:49:56.166Z,4.31
2023-04-15T17:52:22.924Z,4.25
2023-04-15T17:54:49.776Z,4.22
2023-04-15T17:57:16.726Z,4.08
2023-04-15T17:59:45.090Z,4.27
2023-04-15T18:02:15.176Z,4.28
2023-04-15T18:04:42.003Z,4.27
2023-04-15T18:07:09.613Z,4.22
2023-04-15T18:09:38.559Z,4.22
2023-04-15T18:12:07.599Z,4.15
2023-04-15T18:14:35.262Z,4.18
2023-04-15T18:17:05.189Z,4.16
2023-04-15T18:19:32.235Z,4.12
2023-04-15T18:22:00.428Z,4.21
2023-04-15T18:24:27.620Z,4.13
2023-04-15T18:26:54.297Z,4.13
2023-04-15T18:29:25.629Z,4.16
2023-04-15T18:31:52.835Z,4.12
2023-04-15T18:34:19.691Z,4.13
2023-04-15T18:36:46.384Z,4.12
2023-04-15T18:39:13.064Z,4.11
2023-04-15T18:41:40.824Z,4.11
2023-04-15T18:44:07.505Z,4.04
2023-04-15T18:46:34.319Z,4.13
2023-04-15T18:49:02.780Z,4.13
2023-04-15T18:51:31.253Z,4.13
2023-04-15T18:53:59.017Z,4.13
2023-04-15T18:56:25.933Z,4.15
2023-04-15T18:59:27.845Z,4.11
2023-04-15T19:01:39.422Z,4.15
2023-04-15T19:04:10.238Z,4.23
2023-04-15T19:06:37.032Z,4.21
2023-04-15T19:09:04.002Z,4.24
2023-04-15T19:11:31.393Z,4.22
2023-04-15T19:13:58.036Z,4.16
2023-04-15T19:16:24.861Z,4.23
2023-04-15T19:18:52.035Z,4.23
2023-04-15T19:21:18.718Z,4.27
2023-04-15T19:23:45.516Z,4.26
2023-04-15T19:26:12.281Z,4.27
2023-04-15T19:28:38.918Z,4.29
2023-04-15T19:31:05.597Z,4.25
2023-04-15T19:33:32.301Z,4.32
2023-04-15T19:36:04.167Z,4.29
2023-04-15T19:38:31.613Z,4.28
2023-04-15T19:40:58.870Z,4.30
2023-04-15T19:43:25.505Z,4.25
2023-04-15T19:45:54.791Z,4.32
2023-04-15T19:48:22.886Z,4.28
2023-04-15T19:50:49.637Z,4.37
2023-04-15T19:53:16.321Z,4.30
2023-04-15T19:55:43.482Z,4.38
2023-04-15T19:58:10.124Z,4.31
2023-04-15T20:00:37.122Z,4.37
2023-04-15T20:03:04.364Z,4.36
2023-04-15T20:05:31.332Z,4.40
2023-04-15T20:07:59.846Z,4.32
2023-04-15T20:10:27.285Z,4.37
2023-04-15T20:12:54.038Z,4.39
2023-04-15T20:15:22.766Z,4.40
2023-04-15T20:17:50.255Z,4.35
2023-04-15T20:20:16.977Z,4.34
2023-04-15T20:22:43.618Z,4.40
2023-04-15T20:25:10.561Z,4.33
2023-04-15T20:27:37.225Z,4.37
2023-04-15T20:30:05.132Z,4.34
2023-04-15T20:32:35.917Z,4.33
2023-04-15T20:35:04.422Z,4.38
2023-04-15T20:37:33.284Z,4.30
2023-04-15T20:40:01.000Z,4.36
2023-04-15T20:42:27.725Z,4.39
2023-04-15T20:44:54.528Z,4.41
2023-04-15T20:47:21.319Z,4.40
2023-04-15T20:49:48.196Z,4.36
2023-04-15T20:52:14.961Z,4.40
2023-04-15T20:54:41.663Z,4.37
2023-04-15T20:57:08.327Z,4.45
2023-04-15T20:59:35.090Z,4.34
2023-04-15T21:02:02.297Z,4.43
2023-04-15T21:04:29.192Z,4.45
2023-04-15T21:06:55.824Z,4.45
2023-04-15T21:09:22.517Z,4.38
2023-04-15T21:14:19.526Z,4.52
2023-04-15T21:16:46.357Z,4.48
2023-04-15T21:19:13.114Z,4.48
2023-04-15T21:21:39.875Z,4.44
2023-04-15T21:24:07.952Z,4.52
2023-04-15T21:26:36.097Z,4.41
2023-04-15T21:29:03.323Z,4.55
2023-04-15T21:31:30.641Z,4.55
2023-04-15T21:33:57.412Z,4.49
2023-04-15T21:36:24.061Z,4.58
2023-04-15T21:38:50.743Z,4.59
2023-04-15T21:41:17.418Z,4.57
2023-04-15T21:43:44.181Z,4.59
2023-04-15T21:46:22.539Z,4.63
2023-04-15T21:48:53.518Z,4.64
2023-04-15T21:51:20.308Z,4.63
2023-04-15T21:53:47.014Z,4.63
2023-04-15T21:56:13.730Z,4.62
2023-04-15T21:58:40.689Z,4.62
2023-04-15T22:01:07.795Z,4.62
2023-04-15T22:03:35.284Z,4.61
2023-04-15T22:06:03.192Z,4.65
2023-04-15T22:08:36.079Z,4.63
2023-04-15T22:11:26.603Z,4.64
2023-04-15T22:13:57.327Z,4.61
2023-04-15T22:16:27.084Z,4.67
2023-04-15T22:18:54.484Z,4.67
2023-04-15T22:21:21.286Z,4.63
2023-04-15T22:23:49.473Z,4.65
2023-04-15T22:26:16.672Z,4.66
2023-04-15T22:28:43.321Z,4.62
2023-04-15T22:31:10.275Z,4.64
2023-04-15T22:33:36.944Z,4.69
2023-04-15T22:36:03.899Z,4.69
2023-04-15T22:38:30.674Z,4.71
2023-04-15T22:40:57.438Z,4.69
2023-04-15T22:43:24.155Z,4.66
2023-04-15T22:45:51.505Z,4.71
2023-04-15T22:48:18.814Z,4.70
2023-04-15T22:50:45.916Z,4.69
2023-04-15T22:53:13.020Z,4.72
2023-04-15T22:55:39.703Z,4.73
2023-04-15T22:58:06.438Z,4.69
2023-04-15T23:00:33.125Z,4.74
2023-04-15T23:03:00.372Z,4.76
2023-04-15T23:05:27.692Z,4.60
2023-04-15T23:07:54.617Z,4.70
2023-04-15T23:10:21.356Z,4.77
2023-04-15T23:12:48.089Z,4.74
2023-04-15T23:15:14.871Z,4.70
2023-04-15T23:17:43.009Z,4.67
2023-04-15T23:20:10.335Z,4.77
2023-04-15T23:22:37.863Z,4.79
2023-04-15T23:25:06.012Z,4.73
2023-04-15T23:27:32.755Z,4.81
2023-04-15T23:29:59.340Z,4.80
2023-04-15T23:32:26.744Z,4.80
2023-04-15T23:34:53.611Z,4.79
2023-04-15T23:37:20.204Z,4.72
2023-04-15T23:39:56.060Z,4.81
2023-04-15T23:42:24.225Z,4.80
2023-04-15T23:44:51.194Z,4.74
2023-04-15T23:47:17.966Z,4.85
2023-04-15T23:49:44.888Z,4.86
2023-04-15T23:52:11.695Z,4.88
2023-04-15T23:54:38.396Z,4.87
2023-04-15T23:57:05.002Z,4.87
2023-04-15T23:59:31.822Z,4.87
